sensor_id;sensor_type;location;lat;lon;timestamp;pressure;altitude;pressure_sealevel;temperature;humidity
45403;BME280;47427;51.976;5.326;2022-11-20T00:01:46;101351.16;;;-3.84;97.54
45403;BME280;47427;51.976;5.326;2022-11-20T00:05:08;101341.38;;;-3.88;97.63
45403;BME280;47427;51.976;5.326;2022-11-20T00:08:30;101351.50;;;-3.89;97.32
45403;BME280;47427;51.976;5.326;2022-11-20T00:11:51;101351.81;;;-3.95;97.43
45403;BME280;47427;51.976;5.326;2022-11-20T00:15:13;101337.00;;;-4.08;97.62
45403;BME280;47427;51.976;5.326;2022-11-20T00:18:35;101344.50;;;-4.01;97.48
45403;BME280;47427;51.976;5.326;2022-11-20T00:21:57;101350.38;;;-4.02;97.60
45403;BME280;47427;51.976;5.326;2022-11-20T00:25:19;101332.47;;;-4.10;97.92
45403;BME280;47427;51.976;5.326;2022-11-20T00:28:41;101343.75;;;-4.00;98.38
45403;BME280;47427;51.976;5.326;2022-11-20T00:32:03;101319.22;;;-4.06;98.15
45403;BME280;47427;51.976;5.326;2022-11-20T00:35:25;101334.22;;;-4.01;97.85
45403;BME280;47427;51.976;5.326;2022-11-20T00:38:50;101334.44;;;-4.08;98.10
45403;BME280;47427;51.976;5.326;2022-11-20T00:42:12;101331.13;;;-4.07;97.86
45403;BME280;47427;51.976;5.326;2022-11-20T00:45:33;101324.06;;;-4.09;98.18
45403;BME280;47427;51.976;5.326;2022-11-20T00:48:55;101321.34;;;-4.11;98.22
45403;BME280;47427;51.976;5.326;2022-11-20T00:52:17;101314.63;;;-4.19;98.48
45403;BME280;47427;51.976;5.326;2022-11-20T00:55:39;101322.72;;;-4.15;98.19
45403;BME280;47427;51.976;5.326;2022-11-20T00:59:00;101323.63;;;-4.14;98.30
45403;BME280;47427;51.976;5.326;2022-11-20T01:02:22;101318.06;;;-4.19;98.14
45403;BME280;47427;51.976;5.326;2022-11-20T01:05:44;101326.97;;;-4.15;98.18
45403;BME280;47427;51.976;5.326;2022-11-20T01:09:10;101322.75;;;-4.23;98.24
45403;BME280;47427;51.976;5.326;2022-11-20T01:12:32;101317.09;;;-4.29;98.34
45403;BME280;47427;51.976;5.326;2022-11-20T01:15:53;101333.78;;;-4.24;98.86
45403;BME280;47427;51.976;5.326;2022-11-20T01:19:22;101325.81;;;-4.27;98.36
45403;BME280;47427;51.976;5.326;2022-11-20T01:22:44;101316.19;;;-4.30;98.30
45403;BME280;47427;51.976;5.326;2022-11-20T01:26:11;101270.72;;;-4.60;98.44
45403;BME280;47427;51.976;5.326;2022-11-20T01:29:33;101310.63;;;-4.34;98.79
45403;BME280;47427;51.976;5.326;2022-11-20T01:32:55;101314.72;;;-4.37;98.53
45403;BME280;47427;51.976;5.326;2022-11-20T01:36:20;101317.91;;;-4.39;98.80
45403;BME280;47427;51.976;5.326;2022-11-20T01:39:43;101320.63;;;-4.38;98.61
45403;BME280;47427;51.976;5.326;2022-11-20T01:43:17;101314.78;;;-4.45;99.23
45403;BME280;47427;51.976;5.326;2022-11-20T01:46:58;101320.78;;;-4.45;99.02
45403;BME280;47427;51.976;5.326;2022-11-20T01:50:27;101314.47;;;-4.48;99.10
45403;BME280;47427;51.976;5.326;2022-11-20T01:53:53;101314.97;;;-4.52;99.01
45403;BME280;47427;51.976;5.326;2022-11-20T01:57:15;101300.66;;;-4.50;99.02
45403;BME280;47427;51.976;5.326;2022-11-20T02:00:40;101308.16;;;-4.52;99.12
45403;BME280;47427;51.976;5.326;2022-11-20T02:04:02;101288.63;;;-4.60;99.29
45403;BME280;47427;51.976;5.326;2022-11-20T02:07:26;101281.13;;;-4.67;99.00
45403;BME280;47427;51.976;5.326;2022-11-20T02:10:49;101293.16;;;-4.58;99.41
45403;BME280;47427;51.976;5.326;2022-11-20T02:14:35;101309.84;;;-4.52;98.96
45403;BME280;47427;51.976;5.326;2022-11-20T02:17:57;101305.19;;;-4.57;99.20
45403;BME280;47427;51.976;5.326;2022-11-20T02:21:37;101302.63;;;-4.57;99.14
45403;BME280;47427;51.976;5.326;2022-11-20T02:25:03;101282.75;;;-4.59;99.58
45403;BME280;47427;51.976;5.326;2022-11-20T02:28:25;101287.13;;;-4.58;99.50
45403;BME280;47427;51.976;5.326;2022-11-20T02:31:47;101279.63;;;-4.65;99.03
45403;BME280;47427;51.976;5.326;2022-11-20T02:35:09;101295.00;;;-4.74;99.02
45403;BME280;47427;51.976;5.326;2022-11-20T02:38:31;101292.59;;;-4.72;99.60
45403;BME280;47427;51.976;5.326;2022-11-20T02:41:54;101271.41;;;-4.80;99.15
45403;BME280;47427;51.976;5.326;2022-11-20T02:45:17;101279.09;;;-4.80;99.47
45403;BME280;47427;51.976;5.326;2022-11-20T02:48:38;101290.66;;;-4.75;99.60
45403;BME280;47427;51.976;5.326;2022-11-20T02:52:00;101306.75;;;-4.67;99.54
45403;BME280;47427;51.976;5.326;2022-11-20T02:55:21;101292.94;;;-4.78;99.61
45403;BME280;47427;51.976;5.326;2022-11-20T02:58:44;101290.22;;;-4.80;99.42
45403;BME280;47427;51.976;5.326;2022-11-20T03:02:07;101283.78;;;-4.85;100.00
45403;BME280;47427;51.976;5.326;2022-11-20T03:05:29;101290.81;;;-4.73;99.96
45403;BME280;47427;51.976;5.326;2022-11-20T03:08:50;101295.31;;;-4.71;99.63
45403;BME280;47427;51.976;5.326;2022-11-20T03:12:12;101282.53;;;-4.71;99.77
45403;BME280;47427;51.976;5.326;2022-11-20T03:15:36;101249.44;;;-4.87;99.34
45403;BME280;47427;51.976;5.326;2022-11-20T03:18:57;101251.56;;;-4.83;99.35
45403;BME280;47427;51.976;5.326;2022-11-20T03:22:19;101252.44;;;-4.82;99.88
45403;BME280;47427;51.976;5.326;2022-11-20T03:25:40;101262.22;;;-4.78;99.47
45403;BME280;47427;51.976;5.326;2022-11-20T03:29:04;101260.84;;;-4.74;100.00
45403;BME280;47427;51.976;5.326;2022-11-20T03:32:26;101236.22;;;-4.91;99.80
45403;BME280;47427;51.976;5.326;2022-11-20T03:35:49;101251.69;;;-4.81;99.57
45403;BME280;47427;51.976;5.326;2022-11-20T03:39:11;101246.78;;;-4.88;99.54
45403;BME280;47427;51.976;5.326;2022-11-20T03:42:33;101241.94;;;-4.94;100.00
45403;BME280;47427;51.976;5.326;2022-11-20T03:46:08;101266.75;;;-4.84;100.00
45403;BME280;47427;51.976;5.326;2022-11-20T03:49:30;101244.06;;;-4.90;99.86
45403;BME280;47427;51.976;5.326;2022-11-20T03:52:51;101256.25;;;-4.87;99.95
45403;BME280;47427;51.976;5.326;2022-11-20T03:56:15;101243.06;;;-5.01;100.00
45403;BME280;47427;51.976;5.326;2022-11-20T03:59:37;101240.31;;;-4.93;100.00
45403;BME280;47427;51.976;5.326;2022-11-20T04:03:01;101226.81;;;-5.01;100.00
45403;BME280;47427;51.976;5.326;2022-11-20T04:06:25;101238.94;;;-4.90;100.00
45403;BME280;47427;51.976;5.326;2022-11-20T04:09:47;101223.16;;;-4.94;100.00
45403;BME280;47427;51.976;5.326;2022-11-20T04:13:09;101213.53;;;-4.97;100.00
45403;BME280;47427;51.976;5.326;2022-11-20T04:16:34;101222.41;;;-4.93;99.84
45403;BME280;47427;51.976;5.326;2022-11-20T04:19:55;101188.75;;;-5.07;100.00
45403;BME280;47427;51.976;5.326;2022-11-20T04:23:17;101215.00;;;-4.90;100.00
45403;BME280;47427;51.976;5.326;2022-11-20T04:26:39;101218.47;;;-4.90;100.00
45403;BME280;47427;51.976;5.326;2022-11-20T04:30:01;101206.47;;;-4.99;100.00
45403;BME280;47427;51.976;5.326;2022-11-20T04:33:22;101205.00;;;-5.06;100.00
45403;BME280;47427;51.976;5.326;2022-11-20T04:36:44;101213.41;;;-4.98;100.00
45403;BME280;47427;51.976;5.326;2022-11-20T04:40:06;101185.63;;;-5.13;100.00
45403;BME280;47427;51.976;5.326;2022-11-20T04:43:28;101207.84;;;-5.03;100.00
45403;BME280;47427;51.976;5.326;2022-11-20T04:46:50;101203.00;;;-5.00;100.00
45403;BME280;47427;51.976;5.326;2022-11-20T04:50:11;101190.13;;;-5.10;100.00
45403;BME280;47427;51.976;5.326;2022-11-20T04:53:34;101188.34;;;-5.11;100.00
45403;BME280;47427;51.976;5.326;2022-11-20T04:56:56;101209.03;;;-4.99;100.00
45403;BME280;47427;51.976;5.326;2022-11-20T05:00:19;101196.84;;;-5.02;100.00
45403;BME280;47427;51.976;5.326;2022-11-20T05:03:41;101198.94;;;-4.98;100.00
45403;BME280;47427;51.976;5.326;2022-11-20T05:07:03;101170.56;;;-5.10;100.00
45403;BME280;47427;51.976;5.326;2022-11-20T05:10:26;101183.59;;;-4.98;100.00
45403;BME280;47427;51.976;5.326;2022-11-20T05:13:49;101186.16;;;-4.98;100.00
45403;BME280;47427;51.976;5.326;2022-11-20T05:17:13;101183.94;;;-5.04;100.00
45403;BME280;47427;51.976;5.326;2022-11-20T05:20:35;101181.66;;;-5.01;100.00
45403;BME280;47427;51.976;5.326;2022-11-20T05:23:57;101167.25;;;-5.09;100.00
45403;BME280;47427;51.976;5.326;2022-11-20T05:27:18;101170.56;;;-5.10;100.00
45403;BME280;47427;51.976;5.326;2022-11-20T05:30:40;101174.31;;;-5.06;100.00
45403;BME280;47427;51.976;5.326;2022-11-20T05:34:01;101171.88;;;-5.05;100.00
45403;BME280;47427;51.976;5.326;2022-11-20T05:37:23;101175.22;;;-5.06;100.00
45403;BME280;47427;51.976;5.326;2022-11-20T05:40:44;101171.59;;;-5.08;100.00
45403;BME280;47427;51.976;5.326;2022-11-20T05:44:06;101169.81;;;-5.09;100.00
45403;BME280;47427;51.976;5.326;2022-11-20T05:47:32;101177.19;;;-5.12;100.00
45403;BME280;47427;51.976;5.326;2022-11-20T05:50:56;101183.84;;;-5.14;100.00
45403;BME280;47427;51.976;5.326;2022-11-20T05:54:39;101185.94;;;-5.18;100.00
45403;BME280;47427;51.976;5.326;2022-11-20T05:58:00;101177.56;;;-5.26;100.00
45403;BME280;47427;51.976;5.326;2022-11-20T06:01:25;101203.25;;;-5.16;100.00
45403;BME280;47427;51.976;5.326;2022-11-20T06:04:46;101188.09;;;-5.32;100.00
45403;BME280;47427;51.976;5.326;2022-11-20T06:08:09;101203.97;;;-5.17;100.00
45403;BME280;47427;51.976;5.326;2022-11-20T06:11:51;101193.75;;;-5.17;100.00
45403;BME280;47427;51.976;5.326;2022-11-20T06:15:13;101203.06;;;-5.09;100.00
45403;BME280;47427;51.976;5.326;2022-11-20T06:18:35;101188.78;;;-5.15;100.00
45403;BME280;47427;51.976;5.326;2022-11-20T06:21:56;101196.22;;;-4.99;100.00
45403;BME280;47427;51.976;5.326;2022-11-20T06:25:18;101209.41;;;-4.86;100.00
45403;BME280;47427;51.976;5.326;2022-11-20T06:28:39;101192.81;;;-4.81;100.00
45403;BME280;47427;51.976;5.326;2022-11-20T06:32:01;101179.28;;;-4.80;100.00
45403;BME280;47427;51.976;5.326;2022-11-20T06:35:23;101183.31;;;-4.73;100.00
45403;BME280;47427;51.976;5.326;2022-11-20T06:38:45;101171.88;;;-4.77;100.00
45403;BME280;47427;51.976;5.326;2022-11-20T06:42:07;101197.09;;;-4.63;100.00
45403;BME280;47427;51.976;5.326;2022-11-20T06:45:28;101193.75;;;-4.62;100.00
45403;BME280;47427;51.976;5.326;2022-11-20T06:48:50;101185.38;;;-4.69;100.00
45403;BME280;47427;51.976;5.326;2022-11-20T06:52:13;101203.97;;;-4.53;99.97
45403;BME280;47427;51.976;5.326;2022-11-20T06:55:44;101173.63;;;-4.67;100.00
45403;BME280;47427;51.976;5.326;2022-11-20T06:59:07;101152.72;;;-4.72;100.00
45403;BME280;47427;51.976;5.326;2022-11-20T07:02:29;101153.91;;;-4.68;99.99
45403;BME280;47427;51.976;5.326;2022-11-20T07:06:14;101180.00;;;-4.53;99.75
45403;BME280;47427;51.976;5.326;2022-11-20T07:09:37;101176.97;;;-4.49;99.81
45403;BME280;47427;51.976;5.326;2022-11-20T07:12:59;101152.19;;;-4.59;99.95
45403;BME280;47427;51.976;5.326;2022-11-20T07:16:22;101163.00;;;-4.53;100.00
45403;BME280;47427;51.976;5.326;2022-11-20T07:19:45;101162.06;;;-4.53;99.93
45403;BME280;47427;51.976;5.326;2022-11-20T07:23:08;101174.91;;;-4.34;100.00
45403;BME280;47427;51.976;5.326;2022-11-20T07:26:30;101160.84;;;-4.29;99.84
45403;BME280;47427;51.976;5.326;2022-11-20T07:29:51;101172.88;;;-4.09;99.97
45403;BME280;47427;51.976;5.326;2022-11-20T07:33:13;101142.94;;;-4.00;99.84
45403;BME280;47427;51.976;5.326;2022-11-20T07:36:36;101151.25;;;-3.74;99.41
45403;BME280;47427;51.976;5.326;2022-11-20T07:39:57;101148.28;;;-3.49;98.95
45403;BME280;47427;51.976;5.326;2022-11-20T07:43:19;101165.00;;;-3.34;98.94
45403;BME280;47427;51.976;5.326;2022-11-20T07:46:42;101167.59;;;-3.13;98.85
45403;BME280;47427;51.976;5.326;2022-11-20T07:53:54;101175.09;;;-2.65;98.31
45403;BME280;47427;51.976;5.326;2022-11-20T07:57:16;101173.56;;;-2.43;97.81
45403;BME280;47427;51.976;5.326;2022-11-20T08:00:37;101171.84;;;-2.22;97.68
45403;BME280;47427;51.976;5.326;2022-11-20T08:03:59;101156.19;;;-1.82;97.05
45403;BME280;47427;51.976;5.326;2022-11-20T08:07:20;101156.31;;;-1.48;96.39
45403;BME280;47427;51.976;5.326;2022-11-20T08:10:42;101146.75;;;-1.39;95.64
45403;BME280;47427;51.976;5.326;2022-11-20T08:14:03;101143.13;;;-1.63;96.37
45403;BME280;47427;51.976;5.326;2022-11-20T08:17:35;101143.09;;;-1.31;95.54
45403;BME280;47427;51.976;5.326;2022-11-20T08:21:22;101156.16;;;-0.38;94.61
45403;BME280;47427;51.976;5.326;2022-11-20T08:24:44;101147.53;;;-0.84;94.24
45403;BME280;47427;51.976;5.326;2022-11-20T08:28:09;101163.28;;;-0.92;94.36
45403;BME280;47427;51.976;5.326;2022-11-20T08:31:31;101135.53;;;-1.18;94.97
45403;BME280;47427;51.976;5.326;2022-11-20T08:34:53;101159.97;;;-1.13;94.67
45403;BME280;47427;51.976;5.326;2022-11-20T08:38:14;101167.19;;;-0.97;94.77
45403;BME280;47427;51.976;5.326;2022-11-20T08:41:36;101154.44;;;-0.95;95.07
45403;BME280;47427;51.976;5.326;2022-11-20T08:44:58;101154.06;;;-1.00;94.93
45403;BME280;47427;51.976;5.326;2022-11-20T08:48:19;101142.00;;;-1.01;95.15
45403;BME280;47427;51.976;5.326;2022-11-20T08:51:42;101146.63;;;-0.85;94.69
45403;BME280;47427;51.976;5.326;2022-11-20T08:55:05;101156.72;;;-0.76;94.39
45403;BME280;47427;51.976;5.326;2022-11-20T08:58:26;101127.50;;;-1.11;94.84
45403;BME280;47427;51.976;5.326;2022-11-20T09:01:48;101141.56;;;-0.95;95.49
45403;BME280;47427;51.976;5.326;2022-11-20T09:05:10;101117.31;;;-0.75;94.73
45403;BME280;47427;51.976;5.326;2022-11-20T09:08:32;101141.03;;;-0.22;94.05
45403;BME280;47427;51.976;5.326;2022-11-20T09:11:54;101125.56;;;0.02;93.14
45403;BME280;47427;51.976;5.326;2022-11-20T09:15:16;101108.41;;;0.26;92.49
45403;BME280;47427;51.976;5.326;2022-11-20T09:18:38;101123.34;;;0.55;91.61
45403;BME280;47427;51.976;5.326;2022-11-20T09:22:01;101100.50;;;0.73;91.31
45403;BME280;47427;51.976;5.326;2022-11-20T09:25:24;101129.63;;;0.58;90.30
45403;BME280;47427;51.976;5.326;2022-11-20T09:28:47;101108.41;;;0.62;90.17
45403;BME280;47427;51.976;5.326;2022-11-20T09:32:10;101118.19;;;1.30;90.00
45403;BME280;47427;51.976;5.326;2022-11-20T09:35:33;101107.81;;;1.55;88.28
45403;BME280;47427;51.976;5.326;2022-11-20T09:38:57;101107.19;;;1.59;87.57
45403;BME280;47427;51.976;5.326;2022-11-20T09:46:17;101090.78;;;2.12;85.54
45403;BME280;47427;51.976;5.326;2022-11-20T09:54:18;101103.16;;;2.86;82.58
45403;BME280;47427;51.976;5.326;2022-11-20T09:57:45;101098.22;;;2.75;81.57
45403;BME280;47427;51.976;5.326;2022-11-20T10:01:17;101086.06;;;2.46;82.05
45403;BME280;47427;51.976;5.326;2022-11-20T10:04:47;101081.78;;;2.47;83.30
45403;BME280;47427;51.976;5.326;2022-11-20T10:08:25;101070.28;;;2.15;82.89
45403;BME280;47427;51.976;5.326;2022-11-20T10:31:39;101046.31;;;2.74;83.23
45403;BME280;47427;51.976;5.326;2022-11-20T10:38:57;101026.56;;;2.61;83.76
45403;BME280;47427;51.976;5.326;2022-11-20T10:42:57;101008.22;;;2.58;82.97
45403;BME280;47427;51.976;5.326;2022-11-20T10:46:45;100993.44;;;2.85;82.65
45403;BME280;47427;51.976;5.326;2022-11-20T10:50:14;100980.28;;;2.67;83.47
45403;BME280;47427;51.976;5.326;2022-11-20T11:02:21;100956.97;;;2.82;84.25
45403;BME280;47427;51.976;5.326;2022-11-20T11:09:38;100940.34;;;3.23;84.32
45403;BME280;47427;51.976;5.326;2022-11-20T11:13:01;100923.38;;;2.98;84.16
45403;BME280;47427;51.976;5.326;2022-11-20T11:16:26;100920.59;;;2.80;85.02
45403;BME280;47427;51.976;5.326;2022-11-20T11:20:16;100912.41;;;2.88;86.32
45403;BME280;47427;51.976;5.326;2022-11-20T11:23:41;100899.44;;;2.58;86.62
45403;BME280;47427;51.976;5.326;2022-11-20T11:27:12;100912.66;;;2.77;87.41
45403;BME280;47427;51.976;5.326;2022-11-20T11:30:43;100898.81;;;2.62;87.89
45403;BME280;47427;51.976;5.326;2022-11-20T11:34:13;100914.28;;;2.75;88.22
45403;BME280;47427;51.976;5.326;2022-11-20T11:37:37;100903.72;;;2.72;88.32
45403;BME280;47427;51.976;5.326;2022-11-20T11:41:00;100897.31;;;2.51;90.13
45403;BME280;47427;51.976;5.326;2022-11-20T11:44:31;100889.16;;;2.59;90.65
45403;BME280;47427;51.976;5.326;2022-11-20T11:48:12;100876.38;;;2.92;90.47
45403;BME280;47427;51.976;5.326;2022-11-20T11:55:54;100877.81;;;2.87;91.32
45403;BME280;47427;51.976;5.326;2022-11-20T11:59:51;100860.84;;;2.77;92.19
45403;BME280;47427;51.976;5.326;2022-11-20T12:03:23;100857.09;;;2.87;91.95
45403;BME280;47427;51.976;5.326;2022-11-20T12:06:57;100866.03;;;2.92;92.63
45403;BME280;47427;51.976;5.326;2022-11-20T12:17:50;100837.97;;;2.85;94.51
45403;BME280;47427;51.976;5.326;2022-11-20T12:22:00;100825.56;;;2.65;95.55
45403;BME280;47427;51.976;5.326;2022-11-20T12:25:29;100818.78;;;2.81;95.41
45403;BME280;47427;51.976;5.326;2022-11-20T12:36:40;100756.88;;;3.02;95.39
45403;BME280;47427;51.976;5.326;2022-11-20T12:52:45;100755.84;;;3.15;94.48
45403;BME280;47427;51.976;5.326;2022-11-20T13:00:18;100751.41;;;2.81;95.58
45403;BME280;47427;51.976;5.326;2022-11-20T13:03:52;100740.06;;;2.79;95.61
45403;BME280;47427;51.976;5.326;2022-11-20T13:07:19;100746.66;;;2.89;95.56
45403;BME280;47427;51.976;5.326;2022-11-20T13:16:15;100728.72;;;2.77;96.52
45403;BME280;47427;51.976;5.326;2022-11-20T13:19:38;100727.84;;;2.77;95.95
45403;BME280;47427;51.976;5.326;2022-11-20T13:23:00;100700.50;;;2.51;96.51
45403;BME280;47427;51.976;5.326;2022-11-20T13:26:23;100703.63;;;2.76;96.49
45403;BME280;47427;51.976;5.326;2022-11-20T13:29:47;100688.00;;;2.75;96.99
45403;BME280;47427;51.976;5.326;2022-11-20T13:33:33;100683.38;;;2.69;97.67
45403;BME280;47427;51.976;5.326;2022-11-20T13:36:59;100676.19;;;2.80;97.70
45403;BME280;47427;51.976;5.326;2022-11-20T13:40:25;100674.00;;;2.88;97.55
45403;BME280;47427;51.976;5.326;2022-11-20T13:43:47;100681.47;;;2.98;97.58
45403;BME280;47427;51.976;5.326;2022-11-20T13:47:27;100685.25;;;2.88;98.07
45403;BME280;47427;51.976;5.326;2022-11-20T14:06:34;100638.53;;;3.03;99.14
45403;BME280;47427;51.976;5.326;2022-11-20T14:10:00;100630.38;;;3.12;99.09
45403;BME280;47427;51.976;5.326;2022-11-20T14:13:21;100633.94;;;2.97;99.99
45403;BME280;47427;51.976;5.326;2022-11-20T14:16:43;100627.19;;;3.01;100.00
45403;BME280;47427;51.976;5.326;2022-11-20T14:20:13;100615.88;;;2.99;100.00
45403;BME280;47427;51.976;5.326;2022-11-20T14:24:10;100599.50;;;3.00;100.00
45403;BME280;47427;51.976;5.326;2022-11-20T14:27:59;100606.47;;;3.01;100.00
45403;BME280;47427;51.976;5.326;2022-11-20T14:31:25;100591.31;;;3.09;100.00
45403;BME280;47427;51.976;5.326;2022-11-20T14:34:49;100589.06;;;2.98;100.00
45403;BME280;47427;51.976;5.326;2022-11-20T14:38:15;100585.53;;;2.96;100.00
45403;BME280;47427;51.976;5.326;2022-11-20T14:41:38;100575.56;;;3.04;100.00
45403;BME280;47427;51.976;5.326;2022-11-20T14:45:00;100572.91;;;2.86;100.00
45403;BME280;47427;51.976;5.326;2022-11-20T14:48:45;100579.50;;;2.97;100.00
45403;BME280;47427;51.976;5.326;2022-11-20T14:52:21;100553.09;;;2.88;100.00
45403;BME280;47427;51.976;5.326;2022-11-20T14:55:43;100564.84;;;2.98;100.00
45403;BME280;47427;51.976;5.326;2022-11-20T14:59:04;100569.53;;;3.05;100.00
45403;BME280;47427;51.976;5.326;2022-11-20T15:02:29;100553.09;;;3.04;100.00
45403;BME280;47427;51.976;5.326;2022-11-20T15:05:51;100554.53;;;3.16;100.00
45403;BME280;47427;51.976;5.326;2022-11-20T15:09:14;100545.72;;;3.12;100.00
45403;BME280;47427;51.976;5.326;2022-11-20T15:16:23;100534.78;;;3.18;100.00
45403;BME280;47427;51.976;5.326;2022-11-20T15:19:46;100526.69;;;3.12;100.00
45403;BME280;47427;51.976;5.326;2022-11-20T15:23:15;100529.19;;;3.10;100.00
45403;BME280;47427;51.976;5.326;2022-11-20T15:26:38;100512.91;;;3.13;100.00
45403;BME280;47427;51.976;5.326;2022-11-20T15:30:01;100482.50;;;2.92;100.00
45403;BME280;47427;51.976;5.326;2022-11-20T15:33:23;100484.88;;;2.88;100.00
45403;BME280;47427;51.976;5.326;2022-11-20T15:36:45;100468.91;;;2.96;100.00
45403;BME280;47427;51.976;5.326;2022-11-20T15:40:07;100460.16;;;2.94;100.00
45403;BME280;47427;51.976;5.326;2022-11-20T15:43:29;100460.66;;;2.87;100.00
45403;BME280;47427;51.976;5.326;2022-11-20T15:46:51;100451.50;;;2.94;100.00
45403;BME280;47427;51.976;5.326;2022-11-20T15:50:17;100437.72;;;2.95;100.00
45403;BME280;47427;51.976;5.326;2022-11-20T15:53:41;100421.22;;;3.11;100.00
45403;BME280;47427;51.976;5.326;2022-11-20T15:57:03;100417.47;;;3.04;100.00
45403;BME280;47427;51.976;5.326;2022-11-20T16:00:24;100405.06;;;3.16;100.00
45403;BME280;47427;51.976;5.326;2022-11-20T16:03:47;100387.75;;;3.15;100.00
45403;BME280;47427;51.976;5.326;2022-11-20T16:07:08;100386.78;;;3.31;100.00
45403;BME280;47427;51.976;5.326;2022-11-20T16:10:31;100388.41;;;3.29;100.00
45403;BME280;47427;51.976;5.326;2022-11-20T16:13:54;100379.53;;;3.42;100.00
45403;BME280;47427;51.976;5.326;2022-11-20T16:17:35;100375.84;;;3.37;100.00
45403;BME280;47427;51.976;5.326;2022-11-20T16:21:11;100370.25;;;3.47;100.00
45403;BME280;47427;51.976;5.326;2022-11-20T16:24:35;100373.25;;;3.56;100.00
45403;BME280;47427;51.976;5.326;2022-11-20T16:27:58;100353.59;;;3.42;100.00
45403;BME280;47427;51.976;5.326;2022-11-20T16:31:39;100349.53;;;3.47;100.00
45403;BME280;47427;51.976;5.326;2022-11-20T16:35:02;100348.34;;;3.40;100.00
45403;BME280;47427;51.976;5.326;2022-11-20T16:38:25;100341.13;;;3.53;100.00
45403;BME280;47427;51.976;5.326;2022-11-20T16:41:48;100331.03;;;3.59;100.00
45403;BME280;47427;51.976;5.326;2022-11-20T16:45:11;100333.22;;;3.69;100.00
45403;BME280;47427;51.976;5.326;2022-11-20T16:48:33;100320.25;;;3.69;100.00
45403;BME280;47427;51.976;5.326;2022-11-20T16:51:56;100316.69;;;3.67;100.00
45403;BME280;47427;51.976;5.326;2022-11-20T16:55:19;100295.47;;;3.76;100.00
45403;BME280;47427;51.976;5.326;2022-11-20T16:58:42;100304.53;;;3.66;100.00
45403;BME280;47427;51.976;5.326;2022-11-20T17:02:05;100291.03;;;3.73;100.00
45403;BME280;47427;51.976;5.326;2022-11-20T17:05:33;100288.34;;;3.72;100.00
45403;BME280;47427;51.976;5.326;2022-11-20T17:08:57;100292.66;;;3.71;100.00
45403;BME280;47427;51.976;5.326;2022-11-20T17:12:20;100286.94;;;3.78;100.00
45403;BME280;47427;51.976;5.326;2022-11-20T17:15:42;100285.56;;;3.67;100.00
45403;BME280;47427;51.976;5.326;2022-11-20T17:19:05;100294.50;;;3.93;100.00
45403;BME280;47427;51.976;5.326;2022-11-20T17:22:28;100298.81;;;3.93;100.00
45403;BME280;47427;51.976;5.326;2022-11-20T17:25:50;100291.44;;;3.82;100.00
45403;BME280;47427;51.976;5.326;2022-11-20T17:29:16;100294.94;;;3.83;100.00
45403;BME280;47427;51.976;5.326;2022-11-20T17:32:39;100296.00;;;3.88;100.00
45403;BME280;47427;51.976;5.326;2022-11-20T17:36:09;100290.13;;;3.92;100.00
45403;BME280;47427;51.976;5.326;2022-11-20T17:39:31;100292.88;;;3.95;100.00
45403;BME280;47427;51.976;5.326;2022-11-20T17:42:54;100299.06;;;3.99;100.00
45403;BME280;47427;51.976;5.326;2022-11-20T17:46:23;100301.03;;;4.04;100.00
45403;BME280;47427;51.976;5.326;2022-11-20T17:49:45;100304.19;;;3.97;100.00
45403;BME280;47427;51.976;5.326;2022-11-20T17:53:08;100308.56;;;3.98;100.00
45403;BME280;47427;51.976;5.326;2022-11-20T17:56:32;100310.75;;;4.08;100.00
45403;BME280;47427;51.976;5.326;2022-11-20T18:00:32;100310.97;;;4.13;100.00
45403;BME280;47427;51.976;5.326;2022-11-20T18:03:58;100315.75;;;4.25;100.00
45403;BME280;47427;51.976;5.326;2022-11-20T18:07:21;100324.84;;;4.34;100.00
45403;BME280;47427;51.976;5.326;2022-11-20T18:10:43;100334.75;;;4.43;100.00
45403;BME280;47427;51.976;5.326;2022-11-20T18:14:11;100334.00;;;4.46;100.00
45403;BME280;47427;51.976;5.326;2022-11-20T18:17:53;100331.41;;;4.46;100.00
45403;BME280;47427;51.976;5.326;2022-11-20T18:21:14;100344.44;;;4.47;100.00
45403;BME280;47427;51.976;5.326;2022-11-20T18:24:36;100341.97;;;4.50;100.00
45403;BME280;47427;51.976;5.326;2022-11-20T18:27:59;100335.88;;;4.50;100.00
45403;BME280;47427;51.976;5.326;2022-11-20T18:31:21;100342.91;;;4.52;100.00
45403;BME280;47427;51.976;5.326;2022-11-20T18:34:43;100353.31;;;4.52;100.00
45403;BME280;47427;51.976;5.326;2022-11-20T18:38:04;100346.47;;;4.54;100.00
45403;BME280;47427;51.976;5.326;2022-11-20T18:41:29;100348.22;;;4.55;100.00
45403;BME280;47427;51.976;5.326;2022-11-20T18:45:10;100351.22;;;4.44;100.00
45403;BME280;47427;51.976;5.326;2022-11-20T18:48:32;100353.69;;;4.41;100.00
45403;BME280;47427;51.976;5.326;2022-11-20T18:51:54;100362.38;;;4.41;100.00
45403;BME280;47427;51.976;5.326;2022-11-20T18:55:16;100363.25;;;4.42;100.00
45403;BME280;47427;51.976;5.326;2022-11-20T18:58:37;100354.63;;;4.43;100.00
45403;BME280;47427;51.976;5.326;2022-11-20T19:02:00;100345.38;;;4.49;100.00
45403;BME280;47427;51.976;5.326;2022-11-20T19:05:22;100348.81;;;4.48;100.00
45403;BME280;47427;51.976;5.326;2022-11-20T19:08:44;100350.50;;;4.48;100.00
45403;BME280;47427;51.976;5.326;2022-11-20T19:12:08;100360.13;;;4.50;100.00
45403;BME280;47427;51.976;5.326;2022-11-20T19:15:32;100355.03;;;4.52;100.00
45403;BME280;47427;51.976;5.326;2022-11-20T19:18:53;100351.25;;;4.45;100.00
45403;BME280;47427;51.976;5.326;2022-11-20T19:22:15;100348.63;;;4.44;100.00
45403;BME280;47427;51.976;5.326;2022-11-20T19:25:37;100341.47;;;4.38;100.00
45403;BME280;47427;51.976;5.326;2022-11-20T19:28:58;100350.38;;;4.45;100.00
45403;BME280;47427;51.976;5.326;2022-11-20T19:32:20;100332.84;;;4.39;100.00
45403;BME280;47427;51.976;5.326;2022-11-20T19:35:41;100349.25;;;4.38;100.00
45403;BME280;47427;51.976;5.326;2022-11-20T19:39:05;100357.97;;;4.40;100.00
45403;BME280;47427;51.976;5.326;2022-11-20T19:42:27;100367.59;;;4.43;100.00